createdAt,value
2018-03-14T00:02:08.872Z,2.60
2018-03-14T00:04:35.934Z,2.60
2018-03-14T00:07:02.881Z,2.60
2018-03-14T00:09:30.002Z,2.60
2018-03-14T00:11:56.585Z,2.60
2018-03-14T00:14:22.924Z,2.60
2018-03-14T00:16:49.115Z,2.60
2018-03-14T00:19:16.194Z,2.60
2018-03-14T00:21:42.403Z,2.60
2018-03-14T00:24:08.762Z,2.60
2018-03-14T00:26:35.640Z,2.60
2018-03-14T00:29:01.994Z,2.60
2018-03-14T00:31:28.986Z,2.50
2018-03-14T00:33:55.230Z,2.50
2018-03-14T00:36:21.685Z,2.50
2018-03-14T00:38:47.906Z,2.50
2018-03-14T00:41:14.912Z,2.50
2018-03-14T00:43:41.145Z,2.40
2018-03-14T00:46:07.360Z,2.40
2018-03-14T00:48:33.843Z,2.40
2018-03-14T00:51:00.293Z,2.40
2018-03-14T00:53:26.657Z,2.40
2018-03-14T00:55:53.252Z,2.40
2018-03-14T00:58:20.212Z,2.40
2018-03-14T01:00:46.405Z,2.30
2018-03-14T01:03:13.464Z,2.30
2018-03-14T01:05:40.408Z,2.30
2018-03-14T01:08:07.515Z,2.30
2018-03-14T01:10:33.816Z,2.30
2018-03-14T01:13:00.078Z,2.30
2018-03-14T01:15:26.271Z,2.30
2018-03-14T01:17:52.839Z,2.30
2018-03-14T01:20:19.858Z,2.40
2018-03-14T01:22:46.157Z,2.30
2018-03-14T01:25:13.588Z,2.30
2018-03-14T01:27:39.841Z,2.30
2018-03-14T01:30:06.129Z,2.30
2018-03-14T01:32:32.471Z,2.40
2018-03-14T01:34:59.515Z,2.40
2018-03-14T01:37:25.738Z,2.30
2018-03-14T01:39:52.007Z,2.30
2018-03-14T01:42:18.292Z,2.30
2018-03-14T01:44:44.757Z,2.30
2018-03-14T01:47:11.178Z,2.30
2018-03-14T01:49:38.134Z,2.40
2018-03-14T01:52:04.379Z,2.30
2018-03-14T01:54:30.643Z,2.40
2018-03-14T01:56:56.920Z,2.40
2018-03-14T01:59:23.970Z,2.50
2018-03-14T02:01:50.301Z,2.50
2018-03-14T02:04:16.511Z,2.50
2018-03-14T02:06:43.476Z,2.50
2018-03-14T02:09:09.728Z,2.40
2018-03-14T02:11:35.981Z,2.40
2018-03-14T02:14:02.199Z,2.40
2018-03-14T02:16:28.365Z,2.40
2018-03-14T02:18:54.620Z,2.40
2018-03-14T02:21:20.807Z,2.40
2018-03-14T02:23:47.800Z,2.40
2018-03-14T02:26:14.165Z,2.40
2018-03-14T02:28:40.619Z,2.40
2018-03-14T02:31:07.686Z,2.30
2018-03-14T02:33:34.381Z,2.30
2018-03-14T02:36:00.688Z,2.30
2018-03-14T02:38:27.186Z,2.30
2018-03-14T02:40:53.379Z,2.30
2018-03-14T02:43:19.646Z,2.30
2018-03-14T02:45:45.877Z,2.30
2018-03-14T02:48:12.178Z,2.30
2018-03-14T02:50:39.142Z,2.30
2018-03-14T02:53:06.067Z,2.30
2018-03-14T02:55:33.043Z,2.20
2018-03-14T02:57:59.272Z,2.20
2018-03-14T03:00:25.458Z,2.20
2018-03-14T03:02:52.492Z,2.20
2018-03-14T03:05:18.654Z,2.20
2018-03-14T03:07:45.692Z,2.20
2018-03-14T03:10:12.612Z,2.20
2018-03-14T03:12:38.926Z,2.20
2018-03-14T03:15:05.258Z,2.20
2018-03-14T03:17:31.586Z,2.20
2018-03-14T03:19:57.905Z,2.20
2018-03-14T03:22:24.100Z,2.20
2018-03-14T03:24:50.305Z,2.10
2018-03-14T03:27:17.284Z,2.10
2018-03-14T03:29:43.503Z,2.10
2018-03-14T03:32:09.865Z,2.10
2018-03-14T03:34:36.036Z,2.10
2018-03-14T03:37:03.078Z,2.10
2018-03-14T03:39:30.063Z,2.10
2018-03-14T03:41:56.413Z,2.10
2018-03-14T03:44:22.651Z,2.10
2018-03-14T03:46:48.781Z,2.10
2018-03-14T03:49:14.999Z,2.10
2018-03-14T03:51:41.351Z,2.10
2018-03-14T03:54:08.490Z,2.20
2018-03-14T03:56:36.230Z,2.20
2018-03-14T03:59:02.413Z,2.20
2018-03-14T04:01:43.714Z,2.20
2018-03-14T04:04:09.930Z,2.20
2018-03-14T04:06:36.071Z,2.20
2018-03-14T04:09:02.527Z,2.20
2018-03-14T04:11:28.861Z,2.20
2018-03-14T04:13:56.669Z,2.10
2018-03-14T04:16:22.960Z,2.10
2018-03-14T04:18:50.710Z,2.20
2018-03-14T04:21:17.035Z,2.10
2018-03-14T04:23:44.802Z,2.10
2018-03-14T04:26:11.266Z,2.10
2018-03-14T04:28:38.225Z,2.10
2018-03-14T04:31:05.119Z,2.10
2018-03-14T04:33:31.487Z,2.10
2018-03-14T04:35:58.465Z,2.10
2018-03-14T04:38:24.682Z,2.10
2018-03-14T04:40:51.021Z,2.10
2018-03-14T04:43:17.352Z,2.10
2018-03-14T04:45:43.541Z,2.10
2018-03-14T04:48:10.559Z,2.10
2018-03-14T04:50:36.812Z,2.10
2018-03-14T04:53:03.839Z,2.10
2018-03-14T04:55:30.058Z,2.10
2018-03-14T04:57:56.256Z,2.10
2018-03-14T05:00:22.465Z,2.20
2018-03-14T05:02:48.894Z,2.20
2018-03-14T05:05:15.235Z,2.20
2018-03-14T05:07:41.625Z,2.20
2018-03-14T05:10:08.668Z,2.30
2018-03-14T05:12:36.097Z,2.30
2018-03-14T05:15:03.418Z,2.30
2018-03-14T05:17:29.829Z,2.30
2018-03-14T05:19:56.043Z,2.30
2018-03-14T05:22:23.043Z,2.30
2018-03-14T05:24:49.294Z,2.30
2018-03-14T05:27:17.060Z,2.40
2018-03-14T05:29:44.125Z,2.40
2018-03-14T05:32:10.469Z,2.40
2018-03-14T05:34:36.663Z,2.40
2018-03-14T05:37:02.890Z,2.40
2018-03-14T05:39:29.131Z,2.50
2018-03-14T05:41:56.182Z,2.50
2018-03-14T05:44:23.259Z,2.50
2018-03-14T05:46:49.847Z,2.50
2018-03-14T05:49:16.804Z,2.50
2018-03-14T05:51:43.111Z,2.50
2018-03-14T05:54:10.976Z,2.50
2018-03-14T05:56:37.977Z,2.50
2018-03-14T05:59:04.334Z,2.50
2018-03-14T06:01:30.608Z,2.50
2018-03-14T06:03:56.904Z,2.50
2018-03-14T06:06:23.995Z,2.40
2018-03-14T06:08:50.296Z,2.40
2018-03-14T06:11:17.359Z,2.50
2018-03-14T06:13:43.728Z,2.50
2018-03-14T06:16:09.913Z,2.50
2018-03-14T06:18:36.914Z,2.60
2018-03-14T06:21:03.245Z,2.50
2018-03-14T06:23:29.632Z,2.60
2018-03-14T06:25:55.855Z,2.60
2018-03-14T06:28:22.267Z,2.70
2018-03-14T06:30:48.591Z,2.70
2018-03-14T06:33:15.502Z,2.80
2018-03-14T06:35:42.033Z,2.80
2018-03-14T06:38:08.363Z,2.80
2018-03-14T06:40:34.688Z,2.80
2018-03-14T06:43:00.956Z,2.80
2018-03-14T06:45:27.967Z,2.90
2018-03-14T06:47:54.224Z,2.80
2018-03-14T06:50:21.228Z,2.90
2018-03-14T06:52:47.484Z,2.90
2018-03-14T06:55:14.633Z,3.00
2018-03-14T06:57:41.638Z,3.10
2018-03-14T07:00:20.172Z,3.10
2018-03-14T07:02:47.529Z,3.10
2018-03-14T07:05:26.304Z,3.10
2018-03-14T07:07:52.932Z,3.10
2018-03-14T07:10:19.391Z,3.20
2018-03-14T07:12:45.899Z,3.20
2018-03-14T07:15:12.985Z,3.30
2018-03-14T07:17:39.533Z,3.20
2018-03-14T07:20:05.804Z,3.30
2018-03-14T07:22:32.186Z,3.30
2018-03-14T07:24:58.624Z,3.30
2018-03-14T07:27:25.193Z,3.20
2018-03-14T07:29:52.177Z,3.00
2018-03-14T07:32:18.733Z,3.10
2018-03-14T07:34:44.983Z,3.00
2018-03-14T07:37:11.253Z,2.90
2018-03-14T07:39:37.643Z,2.90
2018-03-14T07:42:04.773Z,2.90
2018-03-14T07:44:31.803Z,3.00
2018-03-14T07:46:58.162Z,3.00
2018-03-14T07:49:26.005Z,3.10
2018-03-14T07:51:54.849Z,3.10
2018-03-14T07:54:21.298Z,3.10
2018-03-14T07:56:47.893Z,3.10
2018-03-14T07:59:14.853Z,3.20
2018-03-14T08:01:41.960Z,3.20
2018-03-14T08:04:08.346Z,3.20
2018-03-14T08:06:35.130Z,3.30
2018-03-14T08:09:01.469Z,3.20
2018-03-14T08:11:27.669Z,3.20
2018-03-14T08:13:54.138Z,3.20
2018-03-14T08:16:20.304Z,3.20
2018-03-14T08:18:46.581Z,3.10
2018-03-14T08:21:13.073Z,3.00
2018-03-14T08:23:39.267Z,3.00
2018-03-14T08:26:08.979Z,3.10
2018-03-14T08:31:34.216Z,3.20
2018-03-14T08:34:00.503Z,3.20
2018-03-14T08:36:26.748Z,3.20
2018-03-14T08:38:53.266Z,3.20
2018-03-14T08:41:20.653Z,3.10
2018-03-14T08:43:46.941Z,3.10
2018-03-14T08:46:13.665Z,3.20
2018-03-14T08:48:40.173Z,3.20
2018-03-14T08:51:06.374Z,3.20
2018-03-14T08:53:32.674Z,3.20
2018-03-14T08:55:59.657Z,3.10
2018-03-14T08:58:25.936Z,3.10
2018-03-14T09:00:52.904Z,3.10
2018-03-14T09:03:19.905Z,3.10
2018-03-14T09:05:46.368Z,3.10
2018-03-14T09:08:13.502Z,3.10
2018-03-14T09:10:41.299Z,3.10
2018-03-14T09:13:08.310Z,3.10
2018-03-14T09:15:34.638Z,3.10
2018-03-14T09:18:00.960Z,3.20
2018-03-14T09:20:27.216Z,3.10
2018-03-14T09:22:54.340Z,3.00
2018-03-14T09:25:20.611Z,3.10
2018-03-14T09:27:46.873Z,3.10
2018-03-14T09:30:13.116Z,3.20
2018-03-14T09:32:39.441Z,3.20
2018-03-14T09:35:05.651Z,3.30
2018-03-14T09:37:31.913Z,3.30
2018-03-14T09:39:58.961Z,3.50
2018-03-14T09:42:26.652Z,3.60
2018-03-14T09:44:53.701Z,3.60
2018-03-14T09:47:20.825Z,3.70
2018-03-14T09:49:47.994Z,3.80
2018-03-14T09:52:15.116Z,3.80
2018-03-14T09:54:41.393Z,3.80
2018-03-14T09:57:08.698Z,3.80
2018-03-14T09:59:35.001Z,3.90
2018-03-14T10:02:01.376Z,3.90
2018-03-14T10:04:36.597Z,4.00
2018-03-14T10:07:03.048Z,4.10
2018-03-14T10:09:29.437Z,4.30
2018-03-14T10:11:55.726Z,4.40
2018-03-14T10:14:22.015Z,4.50
2018-03-14T10:16:48.374Z,4.70
2018-03-14T10:19:14.580Z,4.90
2018-03-14T10:21:40.797Z,5.00
2018-03-14T10:24:07.315Z,5.10
2018-03-14T10:26:34.732Z,5.20
2018-03-14T10:29:01.202Z,5.20
2018-03-14T10:31:27.470Z,5.00
2018-03-14T10:33:53.735Z,5.00
2018-03-14T10:36:20.114Z,5.00
2018-03-14T10:38:47.501Z,5.20
2018-03-14T10:41:13.777Z,5.10
2018-03-14T10:43:40.063Z,5.10
2018-03-14T10:46:06.425Z,5.10
2018-03-14T10:48:47.565Z,5.10
2018-03-14T10:51:13.760Z,5.10
2018-03-14T10:53:41.187Z,5.30
2018-03-14T10:56:07.401Z,5.30
2018-03-14T10:58:33.658Z,5.40
2018-03-14T11:01:05.946Z,5.50
2018-03-14T11:03:34.998Z,5.50
2018-03-14T11:06:01.463Z,5.50
2018-03-14T11:08:28.553Z,5.80
2018-03-14T11:10:54.786Z,5.80
2018-03-14T11:13:20.989Z,5.90
2018-03-14T11:15:47.366Z,6.10
2018-03-14T11:18:13.711Z,6.20
2018-03-14T11:20:40.021Z,6.10
2018-03-14T11:23:06.329Z,6.20
2018-03-14T11:25:33.281Z,6.20
2018-03-14T11:27:59.620Z,6.20
2018-03-14T11:30:26.048Z,6.10
2018-03-14T11:32:52.410Z,6.20
2018-03-14T11:35:18.672Z,6.10
2018-03-14T11:37:44.972Z,6.00
2018-03-14T11:40:12.014Z,5.90
2018-03-14T11:42:39.874Z,6.00
2018-03-14T11:45:07.000Z,6.00
2018-03-14T11:47:33.234Z,6.00
2018-03-14T11:49:59.454Z,5.90
2018-03-14T11:52:25.793Z,5.80
2018-03-14T11:54:53.068Z,5.60
2018-03-14T11:57:20.104Z,5.60
2018-03-14T11:59:46.438Z,5.50
2018-03-14T12:02:13.604Z,5.60
2018-03-14T12:04:39.990Z,5.60
2018-03-14T12:07:06.305Z,5.70
2018-03-14T12:09:32.586Z,5.80
2018-03-14T12:11:58.847Z,5.90
2018-03-14T12:14:25.226Z,6.00
2018-03-14T12:16:52.347Z,6.00
2018-03-14T12:19:18.983Z,6.00
2018-03-14T12:21:45.301Z,6.00
2018-03-14T12:24:11.721Z,6.10
2018-03-14T12:26:37.925Z,6.10
2018-03-14T12:29:04.319Z,6.00
2018-03-14T12:31:30.687Z,6.00
2018-03-14T12:33:56.944Z,6.00
2018-03-14T12:36:23.230Z,6.00
2018-03-14T12:38:50.300Z,6.10
2018-03-14T12:41:16.804Z,6.10
2018-03-14T12:43:43.944Z,6.30
2018-03-14T12:46:10.220Z,6.30
2018-03-14T12:48:36.485Z,6.40
2018-03-14T12:51:02.741Z,6.40
2018-03-14T12:53:29.740Z,6.30
2018-03-14T12:55:56.516Z,6.30
2018-03-14T12:58:23.572Z,6.20
2018-03-14T13:00:50.820Z,6.10
2018-03-14T13:03:18.961Z,6.10
2018-03-14T13:05:45.206Z,6.10
2018-03-14T13:08:12.392Z,6.10
2018-03-14T13:10:38.627Z,6.10
2018-03-14T13:13:05.029Z,6.10
2018-03-14T13:15:32.275Z,6.10
2018-03-14T13:17:59.285Z,6.10
2018-03-14T13:20:25.574Z,6.10
2018-03-14T13:22:51.982Z,6.10
2018-03-14T13:25:19.945Z,5.90
2018-03-14T13:27:46.942Z,5.80
2018-03-14T13:30:13.318Z,5.80
2018-03-14T13:32:40.446Z,5.70
2018-03-14T13:35:06.873Z,5.70
2018-03-14T13:37:33.220Z,5.70
2018-03-14T13:40:00.377Z,5.90
2018-03-14T13:42:27.203Z,5.90
2018-03-14T13:44:53.430Z,6.10
2018-03-14T13:47:20.480Z,6.50
2018-03-14T13:49:46.790Z,6.40
2018-03-14T13:52:13.063Z,6.60
2018-03-14T13:54:40.215Z,6.70
2018-03-14T13:57:06.930Z,6.60
2018-03-14T13:59:34.765Z,6.70
2018-03-14T14:02:01.044Z,6.70
2018-03-14T14:04:27.246Z,6.70
2018-03-14T14:06:53.651Z,6.60
2018-03-14T14:09:20.154Z,6.60
2018-03-14T14:11:46.726Z,6.60
2018-03-14T14:14:13.111Z,6.70
2018-03-14T14:16:39.461Z,6.70
2018-03-14T14:19:05.618Z,6.80
2018-03-14T14:21:31.858Z,6.80
2018-03-14T14:23:58.113Z,6.80
2018-03-14T14:26:24.330Z,6.60
2018-03-14T14:28:50.661Z,6.50
2018-03-14T14:31:16.831Z,6.30
2018-03-14T14:33:43.112Z,6.10
2018-03-14T14:36:10.143Z,5.70
2018-03-14T14:38:36.386Z,5.70
2018-03-14T14:41:03.498Z,5.60
2018-03-14T14:43:30.466Z,5.50
2018-03-14T14:45:57.605Z,5.40
2018-03-14T14:48:24.515Z,5.40
2018-03-14T14:50:50.763Z,5.40
2018-03-14T14:53:17.033Z,5.30
2018-03-14T14:55:43.274Z,5.30
2018-03-14T14:58:09.498Z,5.40
2018-03-14T15:00:35.778Z,5.50
2018-03-14T15:03:02.025Z,5.50
2018-03-14T15:05:28.257Z,5.50
2018-03-14T15:07:55.359Z,5.50
2018-03-14T15:10:21.640Z,5.50
2018-03-14T15:12:48.542Z,5.60
2018-03-14T15:15:14.911Z,5.60
2018-03-14T15:17:41.247Z,5.70
2018-03-14T15:20:07.743Z,5.70
2018-03-14T15:22:34.160Z,5.70
2018-03-14T15:25:00.402Z,5.70
2018-03-14T15:27:26.776Z,5.70
2018-03-14T15:29:53.269Z,5.70
2018-03-14T15:32:19.446Z,5.60
2018-03-14T15:34:46.749Z,5.50
2018-03-14T15:37:13.010Z,5.50
2018-03-14T15:39:39.401Z,5.40
2018-03-14T15:42:06.494Z,5.40
2018-03-14T15:44:32.812Z,5.40
2018-03-14T15:46:59.782Z,5.40
2018-03-14T15:49:25.974Z,5.40
2018-03-14T15:51:52.931Z,5.30
2018-03-14T15:54:19.192Z,5.30
2018-03-14T15:56:46.316Z,5.30
2018-03-14T15:59:12.699Z,5.30
2018-03-14T16:01:40.542Z,5.30
2018-03-14T16:04:06.843Z,5.30
2018-03-14T16:06:33.148Z,5.20
2018-03-14T16:09:00.099Z,5.20
2018-03-14T16:11:27.072Z,5.20
2018-03-14T16:13:53.476Z,5.20
2018-03-14T16:16:19.739Z,5.20
2018-03-14T16:18:46.288Z,5.10
2018-03-14T16:21:12.528Z,5.20
2018-03-14T16:23:38.838Z,5.20
2018-03-14T16:26:05.393Z,5.10
2018-03-14T16:28:32.372Z,5.10
2018-03-14T16:30:58.692Z,5.10
2018-03-14T16:33:25.708Z,5.00
2018-03-14T16:35:51.892Z,5.00
2018-03-14T16:38:18.122Z,5.00
2018-03-14T16:40:44.302Z,5.00
2018-03-14T16:43:10.643Z,5.00
2018-03-14T16:45:37.547Z,4.90
2018-03-14T16:48:03.723Z,4.90
2018-03-14T16:50:29.936Z,4.90
2018-03-14T16:52:56.908Z,4.70
2018-03-14T16:55:23.154Z,4.70
2018-03-14T16:57:49.438Z,4.70
2018-03-14T17:00:16.393Z,4.60
2018-03-14T17:02:42.673Z,4.50
2018-03-14T17:05:08.878Z,4.50
2018-03-14T17:07:35.236Z,4.50
2018-03-14T17:10:01.374Z,4.40
2018-03-14T17:12:27.755Z,4.40
2018-03-14T17:14:54.229Z,4.40
2018-03-14T17:17:21.407Z,4.30
2018-03-14T17:19:48.499Z,4.20
2018-03-14T17:22:14.806Z,4.20
2018-03-14T17:24:42.023Z,4.20
2018-03-14T17:27:08.223Z,4.10
2018-03-14T17:29:35.195Z,4.00
2018-03-14T17:32:02.340Z,4.00
2018-03-14T17:34:29.610Z,3.90
2018-03-14T17:36:55.856Z,3.90
2018-03-14T17:39:22.116Z,3.90
2018-03-14T17:41:48.803Z,3.80
2018-03-14T17:44:15.290Z,3.80
2018-03-14T17:46:43.186Z,3.70
2018-03-14T17:49:10.364Z,3.70
2018-03-14T17:54:29.530Z,3.60
2018-03-14T17:56:55.848Z,3.60
2018-03-14T17:59:22.967Z,3.60
2018-03-14T18:01:49.115Z,3.60
2018-03-14T18:04:16.228Z,3.50
2018-03-14T18:06:42.559Z,3.50
2018-03-14T18:09:08.741Z,3.50
2018-03-14T18:11:36.163Z,3.50
2018-03-14T18:14:02.594Z,3.50
2018-03-14T18:16:28.911Z,3.50
2018-03-14T18:18:55.281Z,3.50
2018-03-14T18:21:21.661Z,3.40
2018-03-14T18:23:47.801Z,3.40
2018-03-14T18:26:13.998Z,3.30
2018-03-14T18:28:40.225Z,3.30
2018-03-14T18:31:06.455Z,3.30
2018-03-14T18:33:32.719Z,3.20
2018-03-14T18:35:59.024Z,3.20
2018-03-14T18:38:25.265Z,3.20
2018-03-14T18:40:51.527Z,3.20
2018-03-14T18:43:17.869Z,3.20
2018-03-14T18:45:45.168Z,3.10
2018-03-14T18:48:11.589Z,3.10
2018-03-14T18:50:37.973Z,3.00
2018-03-14T18:53:04.256Z,3.00
2018-03-14T18:55:30.637Z,3.00
2018-03-14T18:57:56.850Z,3.00
2018-03-14T19:00:23.119Z,3.00
2018-03-14T19:02:49.395Z,2.90
2018-03-14T19:05:16.341Z,2.90
2018-03-14T19:07:43.269Z,2.90
2018-03-14T19:10:09.478Z,2.80
2018-03-14T19:12:35.724Z,2.90
2018-03-14T19:15:02.022Z,2.90
2018-03-14T19:17:28.697Z,2.90
2018-03-14T19:19:55.931Z,2.80
2018-03-14T19:22:22.222Z,2.80
2018-03-14T19:24:48.515Z,2.80
2018-03-14T19:27:15.520Z,2.70
2018-03-14T19:29:41.708Z,2.70
2018-03-14T19:32:07.971Z,2.70
2018-03-14T19:34:34.181Z,2.60
2018-03-14T19:37:00.631Z,2.60
2018-03-14T19:39:28.300Z,2.50
2018-03-14T19:41:54.617Z,2.50
2018-03-14T19:44:21.231Z,2.50
2018-03-14T19:46:47.806Z,2.40
2018-03-14T19:49:15.578Z,2.40
2018-03-14T19:51:41.848Z,2.30
2018-03-14T19:54:08.152Z,2.30
2018-03-14T19:56:35.867Z,2.30
2018-03-14T19:59:02.384Z,2.30
2018-03-14T20:01:28.570Z,2.30
2018-03-14T20:03:55.458Z,2.20
2018-03-14T20:06:21.857Z,2.20
2018-03-14T20:08:48.336Z,2.20
2018-03-14T20:11:16.135Z,2.10
2018-03-14T20:13:43.198Z,2.10
2018-03-14T20:16:09.543Z,2.00
2018-03-14T20:18:35.865Z,2.10
2018-03-14T20:21:02.110Z,2.00
2018-03-14T20:23:28.405Z,2.00
2018-03-14T20:25:55.455Z,2.00
2018-03-14T20:28:21.656Z,2.00
2018-03-14T20:30:47.990Z,2.00
2018-03-14T20:33:14.997Z,1.90
2018-03-14T20:35:41.163Z,1.90
2018-03-14T20:38:08.326Z,1.80
2018-03-14T20:40:35.334Z,1.80
2018-03-14T20:43:01.552Z,1.80
2018-03-14T20:45:27.837Z,1.80
2018-03-14T20:47:54.090Z,1.80
2018-03-14T20:50:20.322Z,1.80
2018-03-14T20:52:46.581Z,1.90
2018-03-14T20:55:14.545Z,1.80
2018-03-14T20:57:40.920Z,1.80
2018-03-14T21:00:07.398Z,1.80
2018-03-14T21:02:34.347Z,1.80
2018-03-14T21:05:01.351Z,1.80
2018-03-14T21:07:27.652Z,1.80
2018-03-14T21:09:53.943Z,1.70
2018-03-14T21:12:20.223Z,1.70
2018-03-14T21:14:46.464Z,1.70
2018-03-14T21:17:13.086Z,1.80
2018-03-14T21:19:39.362Z,1.70
2018-03-14T21:22:05.792Z,1.70
2018-03-14T21:24:32.099Z,1.70
2018-03-14T21:26:58.309Z,1.70
2018-03-14T21:29:24.478Z,1.70
2018-03-14T21:31:50.734Z,1.70
2018-03-14T21:34:17.717Z,1.60
2018-03-14T21:36:44.047Z,1.60
2018-03-14T21:39:10.313Z,1.60
2018-03-14T21:41:36.670Z,1.50
2018-03-14T21:44:03.775Z,1.40
2018-03-14T21:46:30.107Z,1.40
2018-03-14T21:48:56.365Z,1.40
2018-03-14T21:51:23.493Z,1.30
2018-03-14T21:53:50.523Z,1.30
2018-03-14T21:56:16.706Z,1.30
2018-03-14T21:58:43.228Z,1.20
2018-03-14T22:01:10.726Z,1.10
2018-03-14T22:03:36.956Z,1.10
2018-03-14T22:06:03.384Z,1.00
2018-03-14T22:08:29.528Z,1.00
2018-03-14T22:10:55.779Z,1.00
2018-03-14T22:13:22.728Z,0.90
2018-03-14T22:15:49.845Z,0.80
2018-03-14T22:18:16.126Z,0.80
2018-03-14T22:20:42.493Z,0.80
2018-03-14T22:23:08.771Z,0.80
2018-03-14T22:25:35.054Z,0.70
2018-03-14T22:28:16.373Z,0.70
2018-03-14T22:30:43.430Z,0.60
2018-03-14T22:33:09.749Z,0.60
2018-03-14T22:35:36.776Z,0.50
2018-03-14T22:38:03.926Z,0.40
2018-03-14T22:40:30.264Z,0.40
2018-03-14T22:42:56.500Z,0.30
2018-03-14T22:45:23.616Z,0.10
2018-03-14T22:47:49.839Z,0.10
2018-03-14T22:50:16.275Z,0.10
2018-03-14T22:52:42.557Z,0.00
2018-03-14T22:55:09.648Z,-0.10
2018-03-14T22:57:35.984Z,-0.20
2018-03-14T23:00:02.412Z,-0.20
2018-03-14T23:02:28.939Z,-0.20
2018-03-14T23:04:55.307Z,-0.30
2018-03-14T23:07:22.301Z,-0.50
2018-03-14T23:09:48.543Z,-0.50
2018-03-14T23:12:14.932Z,-0.50
2018-03-14T23:14:41.132Z,-0.60
2018-03-14T23:17:08.205Z,-0.70
2018-03-14T23:19:34.430Z,-0.70
2018-03-14T23:22:00.775Z,-0.80
2018-03-14T23:24:27.009Z,-0.80
2018-03-14T23:26:53.254Z,-0.90
2018-03-14T23:29:19.790Z,-0.90
2018-03-14T23:31:45.962Z,-1.00
2018-03-14T23:34:12.240Z,-1.10
2018-03-14T23:36:38.686Z,-1.10
2018-03-14T23:39:05.774Z,-1.20
2018-03-14T23:41:31.979Z,-1.20
2018-03-14T23:43:59.101Z,-1.30
2018-03-14T23:46:25.240Z,-1.30
2018-03-14T23:48:52.350Z,-1.30
2018-03-14T23:51:18.525Z,-1.30
2018-03-14T23:53:45.659Z,-1.30
2018-03-14T23:56:13.355Z,-1.40
2018-03-14T23:58:39.601Z,-1.40
